createdAt,value
2023-08-29T00:01:20.444Z,100.00
2023-08-29T00:03:47.189Z,100.00
2023-08-29T00:06:13.799Z,100.00
2023-08-29T00:08:40.363Z,100.00
2023-08-29T00:11:06.930Z,100.00
2023-08-29T00:13:33.433Z,100.00
2023-08-29T00:16:00.199Z,100.00
2023-08-29T00:18:26.973Z,100.00
2023-08-29T00:20:54.020Z,100.00
2023-08-29T00:23:20.584Z,100.00
2023-08-29T00:25:49.877Z,100.00
2023-08-29T00:28:16.446Z,100.00
2023-08-29T00:30:45.066Z,100.00
2023-08-29T00:33:11.877Z,100.00
2023-08-29T00:35:39.602Z,100.00
2023-08-29T00:38:06.534Z,100.00
2023-08-29T00:40:33.413Z,100.00
2023-08-29T00:43:01.195Z,100.00
2023-08-29T00:45:33.543Z,100.00
2023-08-29T00:48:03.793Z,100.00
2023-08-29T00:50:31.932Z,100.00
2023-08-29T00:53:04.256Z,100.00
2023-08-29T00:55:32.506Z,100.00
2023-08-29T00:58:01.149Z,100.00
2023-08-29T01:00:29.038Z,100.00
2023-08-29T01:02:56.460Z,100.00
2023-08-29T01:05:23.635Z,100.00
2023-08-29T01:07:53.055Z,100.00
2023-08-29T01:10:32.375Z,100.00
2023-08-29T01:13:34.541Z,100.00
2023-08-29T01:16:05.349Z,100.00
2023-08-29T01:18:33.187Z,100.00
2023-08-29T01:21:07.512Z,100.00
2023-08-29T01:24:06.807Z,100.00
2023-08-29T01:26:34.996Z,100.00
2023-08-29T01:29:03.279Z,100.00
2023-08-29T01:31:31.258Z,100.00
2023-08-29T01:33:58.899Z,100.00
2023-08-29T01:36:38.036Z,100.00
2023-08-29T01:39:04.595Z,100.00
2023-08-29T01:41:31.998Z,100.00
2023-08-29T01:43:58.774Z,100.00
2023-08-29T01:46:25.293Z,100.00
2023-08-29T01:48:51.977Z,100.00
2023-08-29T01:51:18.825Z,100.00
2023-08-29T01:53:45.327Z,100.00
2023-08-29T01:56:13.591Z,100.00
2023-08-29T01:58:41.048Z,100.00
2023-08-29T02:01:22.605Z,100.00
2023-08-29T02:03:50.334Z,100.00
2023-08-29T02:06:18.952Z,100.00
2023-08-29T02:08:45.749Z,100.00
2023-08-29T02:11:12.271Z,100.00
2023-08-29T02:13:38.792Z,100.00
2023-08-29T02:16:05.305Z,100.00
2023-08-29T02:18:32.342Z,100.00
2023-08-29T02:20:58.814Z,100.00
2023-08-29T02:23:25.234Z,100.00
2023-08-29T02:26:05.530Z,100.00
2023-08-29T02:28:36.845Z,100.00
2023-08-29T02:31:04.815Z,100.00
2023-08-29T02:33:35.034Z,100.00
2023-08-29T02:36:01.968Z,100.00
2023-08-29T02:38:28.438Z,100.00
2023-08-29T02:40:54.939Z,100.00
2023-08-29T02:43:21.977Z,100.00
2023-08-29T02:45:51.194Z,100.00
2023-08-29T02:48:18.005Z,100.00
2023-08-29T02:50:49.272Z,100.00
2023-08-29T02:53:20.836Z,100.00
2023-08-29T02:55:50.510Z,100.00
2023-08-29T02:58:16.949Z,100.00
2023-08-29T03:00:43.441Z,100.00
2023-08-29T03:03:10.638Z,100.00
2023-08-29T03:05:37.221Z,100.00
2023-08-29T03:08:05.944Z,100.00
2023-08-29T03:10:38.035Z,100.00
2023-08-29T03:13:04.872Z,100.00
2023-08-29T03:15:34.605Z,100.00
2023-08-29T03:18:04.487Z,100.00
2023-08-29T03:20:31.584Z,100.00
2023-08-29T03:22:58.456Z,100.00
2023-08-29T03:25:24.928Z,100.00
2023-08-29T03:27:51.607Z,100.00
2023-08-29T03:30:18.734Z,100.00
2023-08-29T03:32:50.480Z,100.00
2023-08-29T03:35:18.660Z,100.00
2023-08-29T03:37:45.412Z,100.00
2023-08-29T03:40:13.061Z,100.00
2023-08-29T03:42:41.667Z,100.00
2023-08-29T03:45:09.312Z,100.00
2023-08-29T03:47:39.266Z,100.00
2023-08-29T03:50:09.120Z,100.00
2023-08-29T03:52:36.316Z,100.00
2023-08-29T03:55:03.019Z,100.00
2023-08-29T03:57:29.531Z,100.00
2023-08-29T03:59:56.304Z,100.00
2023-08-29T04:02:23.812Z,100.00
2023-08-29T04:04:52.928Z,100.00
2023-08-29T04:07:20.565Z,100.00
2023-08-29T04:09:47.190Z,100.00
2023-08-29T04:12:13.668Z,100.00
2023-08-29T04:14:40.102Z,100.00
2023-08-29T04:17:06.624Z,100.00
2023-08-29T04:19:33.302Z,100.00
2023-08-29T04:22:00.233Z,100.00
2023-08-29T04:24:26.673Z,100.00
2023-08-29T04:26:53.997Z,100.00
2023-08-29T04:29:20.439Z,100.00
2023-08-29T04:31:48.119Z,100.00
2023-08-29T04:34:14.935Z,100.00
2023-08-29T04:36:41.489Z,100.00
2023-08-29T04:39:07.970Z,100.00
2023-08-29T04:41:36.349Z,100.00
2023-08-29T04:44:02.848Z,100.00
2023-08-29T04:46:29.306Z,100.00
2023-08-29T04:48:56.201Z,100.00
2023-08-29T04:51:23.969Z,100.00
2023-08-29T04:53:50.741Z,100.00
2023-08-29T04:56:17.305Z,100.00
2023-08-29T04:58:44.291Z,100.00
2023-08-29T05:01:11.281Z,100.00
2023-08-29T05:03:37.884Z,100.00
2023-08-29T05:06:04.590Z,100.00
2023-08-29T05:08:35.912Z,100.00
2023-08-29T05:11:03.738Z,100.00
2023-08-29T05:13:30.248Z,100.00
2023-08-29T05:15:56.862Z,100.00
2023-08-29T05:18:23.383Z,100.00
2023-08-29T05:20:49.860Z,100.00
2023-08-29T05:23:16.319Z,100.00
2023-08-29T05:25:43.594Z,100.00
2023-08-29T05:28:10.062Z,100.00
2023-08-29T05:30:36.949Z,100.00
2023-08-29T05:33:03.660Z,100.00
2023-08-29T05:35:30.198Z,100.00
2023-08-29T05:37:56.841Z,100.00
2023-08-29T05:40:23.534Z,100.00
2023-08-29T05:42:50.094Z,100.00
2023-08-29T05:45:16.804Z,100.00
2023-08-29T05:47:43.247Z,100.00
2023-08-29T05:50:09.932Z,100.00
2023-08-29T05:52:36.401Z,100.00
2023-08-29T05:55:02.880Z,100.00
2023-08-29T05:57:30.070Z,100.00
2023-08-29T05:59:56.526Z,100.00
2023-08-29T06:02:23.001Z,100.00
2023-08-29T06:04:49.510Z,100.00
2023-08-29T06:07:16.175Z,100.00
2023-08-29T06:09:42.970Z,100.00
2023-08-29T06:12:10.399Z,100.00
2023-08-29T06:14:36.853Z,100.00
2023-08-29T06:17:03.366Z,100.00
2023-08-29T06:19:29.786Z,100.00
2023-08-29T06:21:56.233Z,100.00
2023-08-29T06:24:24.413Z,100.00
2023-08-29T06:26:50.841Z,100.00
2023-08-29T06:29:17.753Z,100.00
2023-08-29T06:31:44.267Z,100.00
2023-08-29T06:34:11.351Z,100.00
2023-08-29T06:36:38.290Z,100.00
2023-08-29T06:39:05.911Z,100.00
2023-08-29T06:41:32.536Z,100.00
2023-08-29T06:43:58.986Z,100.00
2023-08-29T06:46:25.465Z,100.00
2023-08-29T06:48:52.024Z,100.00
2023-08-29T06:51:18.922Z,100.00
2023-08-29T06:53:45.433Z,100.00
2023-08-29T06:56:11.981Z,100.00
2023-08-29T06:58:39.489Z,100.00
2023-08-29T07:01:06.014Z,100.00
2023-08-29T07:03:32.568Z,100.00
2023-08-29T07:05:59.140Z,100.00
2023-08-29T07:08:26.255Z,100.00
2023-08-29T07:10:52.712Z,100.00
2023-08-29T07:13:19.222Z,100.00
2023-08-29T07:15:45.661Z,100.00
2023-08-29T07:18:12.164Z,100.00
2023-08-29T07:20:38.739Z,100.00
2023-08-29T07:23:05.706Z,100.00
2023-08-29T07:25:40.205Z,100.00
2023-08-29T07:28:12.445Z,100.00
2023-08-29T07:30:51.144Z,100.00
2023-08-29T07:33:18.817Z,100.00
2023-08-29T07:35:48.022Z,100.00
2023-08-29T07:38:15.085Z,100.00
2023-08-29T07:40:41.691Z,100.00
2023-08-29T07:43:10.380Z,100.00
2023-08-29T07:45:36.920Z,100.00
2023-08-29T07:48:04.099Z,100.00
2023-08-29T07:50:31.209Z,100.00
2023-08-29T07:52:57.846Z,100.00
2023-08-29T07:55:24.830Z,100.00
2023-08-29T07:57:51.651Z,100.00
2023-08-29T08:00:18.862Z,100.00
2023-08-29T08:02:45.732Z,100.00
2023-08-29T08:05:15.360Z,99.80
2023-08-29T08:07:45.423Z,99.27
2023-08-29T08:10:17.153Z,98.92
2023-08-29T08:12:43.644Z,98.95
2023-08-29T08:15:10.627Z,98.85
2023-08-29T08:17:38.116Z,98.64
2023-08-29T08:20:08.998Z,98.29
2023-08-29T08:22:38.641Z,98.02
2023-08-29T08:25:05.585Z,97.59
2023-08-29T08:27:32.241Z,96.74
2023-08-29T08:29:58.742Z,96.07
2023-08-29T08:32:25.472Z,95.70
2023-08-29T08:34:52.442Z,95.45
2023-08-29T08:37:18.842Z,95.46
2023-08-29T08:39:45.307Z,95.32
2023-08-29T08:42:15.823Z,94.48
2023-08-29T08:44:43.506Z,93.43
2023-08-29T08:47:11.072Z,92.52
2023-08-29T08:49:38.200Z,91.62
2023-08-29T08:52:06.421Z,90.83
2023-08-29T08:54:32.997Z,90.45
2023-08-29T08:57:00.040Z,89.96
2023-08-29T08:59:26.677Z,89.61
2023-08-29T09:01:56.839Z,89.34
2023-08-29T09:04:24.098Z,89.94
2023-08-29T09:06:50.897Z,90.01
2023-08-29T09:09:24.201Z,89.15
2023-08-29T09:11:51.682Z,88.27
2023-08-29T09:14:18.211Z,88.02
2023-08-29T09:16:44.960Z,88.09
2023-08-29T09:19:17.480Z,88.07
2023-08-29T09:21:44.140Z,86.70
2023-08-29T09:24:14.332Z,85.91
2023-08-29T09:26:41.996Z,85.15
2023-08-29T09:29:19.586Z,84.26
2023-08-29T09:31:48.172Z,83.23
2023-08-29T09:34:30.499Z,82.41
2023-08-29T09:37:01.219Z,81.18
2023-08-29T09:39:28.234Z,80.59
2023-08-29T09:42:04.891Z,80.97
2023-08-29T09:44:36.993Z,81.13
2023-08-29T09:47:04.570Z,81.47
2023-08-29T09:49:51.279Z,80.20
2023-08-29T09:52:18.462Z,78.08
2023-08-29T09:54:48.847Z,78.26
2023-08-29T09:57:17.178Z,78.79
2023-08-29T09:59:44.574Z,78.26
2023-08-29T10:02:13.093Z,78.67
2023-08-29T10:04:44.884Z,78.99
2023-08-29T10:07:15.931Z,77.80
2023-08-29T10:09:44.232Z,77.51
2023-08-29T10:12:12.010Z,77.24
2023-08-29T10:14:39.349Z,76.80
2023-08-29T10:17:11.074Z,76.68
2023-08-29T10:19:45.903Z,76.54
2023-08-29T10:22:12.701Z,76.28
2023-08-29T10:24:40.895Z,75.73
2023-08-29T10:27:07.345Z,74.29
2023-08-29T10:29:33.937Z,72.29
2023-08-29T10:32:02.562Z,70.91
2023-08-29T10:34:30.086Z,71.12
2023-08-29T10:37:01.006Z,71.66
2023-08-29T10:39:28.570Z,72.68
2023-08-29T10:41:57.350Z,73.85
2023-08-29T10:44:30.027Z,73.37
2023-08-29T10:47:21.849Z,71.96
2023-08-29T10:49:49.067Z,71.11
2023-08-29T10:52:19.471Z,72.08
2023-08-29T10:54:46.564Z,71.55
2023-08-29T10:57:30.011Z,71.25
2023-08-29T10:59:57.470Z,70.21
2023-08-29T11:02:28.824Z,68.55
2023-08-29T11:05:05.165Z,66.31
2023-08-29T11:07:32.824Z,63.10
2023-08-29T11:10:14.538Z,62.08
2023-08-29T11:13:12.880Z,61.12
2023-08-29T11:15:48.524Z,61.43
2023-08-29T11:18:22.700Z,62.84
2023-08-29T11:20:49.172Z,62.55
2023-08-29T11:23:15.871Z,60.68
2023-08-29T11:25:43.312Z,61.17
2023-08-29T11:28:09.816Z,60.87
2023-08-29T11:30:44.360Z,60.25
2023-08-29T11:33:12.202Z,61.09
2023-08-29T11:35:38.886Z,62.04
2023-08-29T11:38:08.233Z,63.29
2023-08-29T11:40:45.572Z,63.74
2023-08-29T11:43:56.223Z,64.96
2023-08-29T11:46:08.429Z,66.10
2023-08-29T11:48:35.508Z,67.48
2023-08-29T11:51:07.477Z,68.38
2023-08-29T11:53:37.252Z,68.86
2023-08-29T11:56:05.270Z,70.27
2023-08-29T11:58:36.465Z,71.12
2023-08-29T12:01:08.118Z,70.99
2023-08-29T12:03:40.182Z,71.34
2023-08-29T12:06:13.920Z,72.04
2023-08-29T12:08:45.298Z,70.97
2023-08-29T12:11:15.157Z,69.90
2023-08-29T12:13:57.590Z,69.88
2023-08-29T12:16:24.468Z,69.79
2023-08-29T12:18:51.881Z,69.45
2023-08-29T12:21:21.204Z,69.41
2023-08-29T12:23:47.718Z,65.28
2023-08-29T12:26:15.954Z,62.35
2023-08-29T12:28:42.523Z,60.05
2023-08-29T12:31:09.216Z,58.14
2023-08-29T12:33:36.420Z,56.33
2023-08-29T12:36:04.058Z,55.56
2023-08-29T12:38:31.632Z,54.74
2023-08-29T12:40:58.397Z,56.60
2023-08-29T12:43:25.146Z,54.14
2023-08-29T12:45:58.991Z,53.92
2023-08-29T12:48:27.325Z,51.55
2023-08-29T12:50:53.772Z,48.44
2023-08-29T12:53:20.346Z,46.65
2023-08-29T12:55:46.915Z,45.48
2023-08-29T12:58:13.970Z,45.83
2023-08-29T13:00:42.759Z,46.05
2023-08-29T13:03:10.485Z,44.54
2023-08-29T13:05:37.522Z,44.27
2023-08-29T13:08:05.601Z,43.18
2023-08-29T13:10:32.552Z,41.79
2023-08-29T13:12:59.069Z,41.66
2023-08-29T13:15:31.098Z,41.16
2023-08-29T13:18:07.618Z,43.55
2023-08-29T13:20:35.280Z,43.39
2023-08-29T13:23:01.962Z,43.10
2023-08-29T13:25:29.773Z,41.11
2023-08-29T13:27:56.724Z,40.59
2023-08-29T13:30:23.410Z,40.09
2023-08-29T13:32:50.558Z,40.38
2023-08-29T13:35:18.426Z,40.53
2023-08-29T13:37:47.658Z,40.89
2023-08-29T13:40:14.225Z,40.99
2023-08-29T13:42:40.726Z,38.42
2023-08-29T13:45:08.759Z,36.79
2023-08-29T13:47:35.372Z,36.90
2023-08-29T13:50:02.047Z,37.19
2023-08-29T13:52:28.704Z,36.77
2023-08-29T13:54:55.229Z,37.18
2023-08-29T13:57:21.845Z,36.91
2023-08-29T13:59:48.721Z,36.48
2023-08-29T14:02:15.233Z,35.98
2023-08-29T14:04:41.803Z,36.33
2023-08-29T14:07:09.280Z,36.73
2023-08-29T14:09:36.053Z,36.06
2023-08-29T14:12:04.850Z,35.46
2023-08-29T14:14:31.360Z,34.87
2023-08-29T14:16:57.791Z,34.33
2023-08-29T14:19:24.525Z,35.35
2023-08-29T14:21:51.238Z,35.38
2023-08-29T14:24:17.666Z,34.60
2023-08-29T14:26:44.226Z,34.08
2023-08-29T14:29:10.900Z,32.68
2023-08-29T14:31:37.656Z,33.00
2023-08-29T14:34:04.530Z,31.95
2023-08-29T14:36:34.840Z,31.99
2023-08-29T14:39:01.957Z,33.45
2023-08-29T14:41:28.807Z,32.84
2023-08-29T14:43:56.831Z,34.48
2023-08-29T14:46:23.472Z,34.18
2023-08-29T14:48:50.207Z,34.03
2023-08-29T14:51:16.758Z,34.38
2023-08-29T14:53:43.318Z,34.53
2023-08-29T14:56:09.817Z,35.32
2023-08-29T14:58:36.276Z,37.09
2023-08-29T15:01:02.815Z,36.42
2023-08-29T15:03:29.989Z,34.96
2023-08-29T15:06:01.973Z,36.96
2023-08-29T15:08:28.525Z,38.51
2023-08-29T15:10:55.288Z,40.74
2023-08-29T15:13:22.445Z,37.79
2023-08-29T15:15:49.059Z,39.44
2023-08-29T15:18:16.469Z,39.71
2023-08-29T15:20:43.703Z,37.18
2023-08-29T15:23:16.313Z,38.00
2023-08-29T15:25:43.667Z,38.06
2023-08-29T15:28:13.111Z,41.06
2023-08-29T15:30:39.913Z,43.57
2023-08-29T15:33:06.418Z,45.13
2023-08-29T15:35:32.959Z,39.79
2023-08-29T15:37:59.485Z,42.34
2023-08-29T15:40:26.488Z,41.74
2023-08-29T15:42:53.249Z,42.64
2023-08-29T15:45:19.834Z,41.59
2023-08-29T15:47:46.295Z,41.63
2023-08-29T15:50:12.978Z,45.10
2023-08-29T15:52:39.471Z,43.69
2023-08-29T15:55:06.503Z,43.40
2023-08-29T15:57:33.026Z,43.16
2023-08-29T15:59:59.493Z,43.67
2023-08-29T16:02:26.400Z,45.82
2023-08-29T16:04:53.711Z,45.73
2023-08-29T16:07:20.307Z,45.84
2023-08-29T16:09:46.732Z,45.14
2023-08-29T16:12:13.430Z,45.38
2023-08-29T16:14:39.843Z,47.11
2023-08-29T16:17:06.293Z,47.65
2023-08-29T16:19:33.103Z,49.44
2023-08-29T16:22:00.301Z,52.94
2023-08-29T16:24:26.729Z,47.71
2023-08-29T16:26:53.163Z,51.37
2023-08-29T16:29:19.582Z,54.92
2023-08-29T16:31:46.094Z,52.12
2023-08-29T16:34:12.973Z,52.08
2023-08-29T16:36:39.436Z,50.33
2023-08-29T16:39:09.901Z,50.83
2023-08-29T16:41:37.446Z,54.51
2023-08-29T16:44:04.199Z,55.43
2023-08-29T16:46:31.049Z,52.09
2023-08-29T16:48:59.283Z,51.90
2023-08-29T16:51:25.783Z,51.32
2023-08-29T16:53:52.245Z,51.29
2023-08-29T16:56:18.681Z,54.33
2023-08-29T16:58:45.323Z,49.80
2023-08-29T17:01:11.821Z,51.04
2023-08-29T17:03:39.561Z,53.61
2023-08-29T17:06:06.148Z,55.30
2023-08-29T17:08:32.644Z,58.54
2023-08-29T17:10:59.082Z,56.65
2023-08-29T17:13:25.536Z,60.72
2023-08-29T17:15:52.196Z,61.40
2023-08-29T17:18:20.029Z,62.44
2023-08-29T17:20:46.492Z,63.67
2023-08-29T17:23:12.940Z,64.04
2023-08-29T17:25:39.653Z,64.21
2023-08-29T17:28:06.966Z,64.07
2023-08-29T17:30:33.744Z,65.13
2023-08-29T17:33:00.265Z,65.85
2023-08-29T17:35:26.750Z,67.19
2023-08-29T17:37:53.209Z,68.17
2023-08-29T17:40:19.758Z,67.89
2023-08-29T17:42:46.400Z,68.65
2023-08-29T17:45:14.311Z,70.20
2023-08-29T17:47:41.752Z,69.82
2023-08-29T17:50:09.281Z,70.72
2023-08-29T17:52:35.958Z,70.78
2023-08-29T17:55:03.324Z,69.67
2023-08-29T17:57:29.749Z,71.96
2023-08-29T17:59:56.308Z,72.13
2023-08-29T18:02:23.476Z,73.19
2023-08-29T18:04:50.919Z,72.16
2023-08-29T18:07:18.715Z,74.15
2023-08-29T18:10:12.722Z,75.69
2023-08-29T18:12:41.069Z,76.19
2023-08-29T18:15:09.401Z,74.98
2023-08-29T18:17:36.126Z,75.36
2023-08-29T18:20:03.392Z,76.28
2023-08-29T18:22:30.551Z,76.57
2023-08-29T18:24:57.090Z,76.87
2023-08-29T18:27:24.371Z,76.85
2023-08-29T18:29:50.937Z,77.18
2023-08-29T18:32:17.452Z,76.94
2023-08-29T18:34:44.343Z,76.05
2023-08-29T18:37:10.896Z,76.09
2023-08-29T18:39:38.401Z,76.00
2023-08-29T18:42:06.593Z,76.04
2023-08-29T18:44:36.705Z,76.96
2023-08-29T18:47:04.759Z,77.49
2023-08-29T18:49:33.091Z,77.02
2023-08-29T18:52:00.112Z,76.68
2023-08-29T18:54:26.593Z,76.18
2023-08-29T18:56:53.179Z,75.67
2023-08-29T18:59:20.212Z,76.72
2023-08-29T19:01:46.886Z,76.59
2023-08-29T19:04:13.450Z,77.54
2023-08-29T19:06:40.043Z,76.83
2023-08-29T19:09:07.251Z,76.17
2023-08-29T19:11:34.453Z,76.88
2023-08-29T19:14:00.893Z,77.22
2023-08-29T19:16:27.596Z,77.42
2023-08-29T19:18:54.217Z,78.54
2023-08-29T19:21:20.677Z,78.51
2023-08-29T19:23:47.145Z,78.94
2023-08-29T19:26:13.756Z,77.82
2023-08-29T19:28:40.482Z,77.62
2023-08-29T19:31:07.288Z,76.93
2023-08-29T19:33:33.856Z,76.32
2023-08-29T19:36:13.750Z,76.04
2023-08-29T19:38:41.506Z,76.21
2023-08-29T19:41:08.868Z,77.09
2023-08-29T19:43:35.546Z,76.55
2023-08-29T19:46:02.015Z,77.00
2023-08-29T19:48:29.605Z,77.04
2023-08-29T19:50:56.098Z,77.13
2023-08-29T19:53:22.593Z,77.60
2023-08-29T19:55:54.397Z,77.75
2023-08-29T19:58:22.470Z,78.17
2023-08-29T20:00:50.779Z,79.09
2023-08-29T20:03:17.969Z,79.00
2023-08-29T20:05:45.277Z,79.82
2023-08-29T20:08:14.918Z,81.04
2023-08-29T20:10:42.204Z,82.02
2023-08-29T20:13:09.072Z,82.36
2023-08-29T20:15:44.323Z,82.89
2023-08-29T20:18:12.073Z,83.10
2023-08-29T20:20:40.749Z,84.05
2023-08-29T20:23:09.671Z,84.74
2023-08-29T20:25:36.156Z,85.17
2023-08-29T20:28:03.208Z,86.01
2023-08-29T20:30:30.108Z,86.70
2023-08-29T20:32:56.642Z,87.36
2023-08-29T20:35:23.116Z,87.69
2023-08-29T20:37:49.590Z,88.38
2023-08-29T20:40:16.077Z,89.03
2023-08-29T20:42:42.765Z,89.92
2023-08-29T20:45:09.968Z,90.57
2023-08-29T20:47:38.435Z,90.65
2023-08-29T20:50:06.149Z,91.03
2023-08-29T20:52:32.627Z,91.35
2023-08-29T20:54:59.228Z,91.49
2023-08-29T20:57:25.691Z,91.41
2023-08-29T20:59:52.633Z,91.44
2023-08-29T21:02:19.090Z,91.47
2023-08-29T21:04:45.600Z,91.80
2023-08-29T21:07:12.042Z,91.96
2023-08-29T21:09:38.491Z,92.56
2023-08-29T21:12:06.077Z,92.47
2023-08-29T21:14:32.525Z,92.03
2023-08-29T21:16:59.275Z,92.53
2023-08-29T21:19:25.698Z,91.95
2023-08-29T21:21:52.101Z,92.18
2023-08-29T21:24:18.787Z,92.10
2023-08-29T21:26:45.225Z,92.48
2023-08-29T21:29:11.725Z,93.10
2023-08-29T21:31:38.198Z,92.82
2023-08-29T21:34:05.068Z,93.11
2023-08-29T21:36:31.585Z,93.01
2023-08-29T21:38:58.063Z,93.50
2023-08-29T21:41:25.455Z,93.52
2023-08-29T21:43:52.820Z,93.36
2023-08-29T21:46:19.331Z,93.70
2023-08-29T21:48:46.590Z,93.64
2023-08-29T21:51:13.441Z,93.88
2023-08-29T21:53:40.070Z,94.09
2023-08-29T21:56:10.564Z,94.09
2023-08-29T21:58:37.173Z,94.42
2023-08-29T22:01:03.679Z,94.60
2023-08-29T22:03:30.197Z,95.08
2023-08-29T22:05:57.020Z,95.20
2023-08-29T22:08:23.547Z,94.92
2023-08-29T22:10:51.330Z,95.07
2023-08-29T22:13:19.184Z,95.26
2023-08-29T22:15:45.745Z,95.43
2023-08-29T22:18:12.923Z,95.64
2023-08-29T22:20:39.808Z,95.96
2023-08-29T22:23:06.350Z,95.86
2023-08-29T22:25:32.823Z,95.91
2023-08-29T22:27:59.310Z,95.79
2023-08-29T22:30:25.930Z,95.27
2023-08-29T22:32:55.592Z,95.08
2023-08-29T22:35:22.202Z,95.05
2023-08-29T22:37:48.668Z,95.07
2023-08-29T22:40:15.496Z,94.97
2023-08-29T22:42:41.999Z,95.09
2023-08-29T22:45:08.945Z,95.14
2023-08-29T22:47:35.421Z,95.39
2023-08-29T22:50:02.458Z,95.62
2023-08-29T22:52:29.012Z,95.50
2023-08-29T22:54:55.477Z,95.78
2023-08-29T22:57:22.024Z,96.13
2023-08-29T22:59:48.849Z,96.05
2023-08-29T23:02:16.104Z,96.49
2023-08-29T23:04:42.742Z,96.29
2023-08-29T23:07:09.705Z,96.42
2023-08-29T23:09:37.232Z,96.59
2023-08-29T23:12:04.712Z,97.16
2023-08-29T23:14:31.175Z,97.39
2023-08-29T23:16:58.016Z,97.62
2023-08-29T23:19:25.435Z,98.10
2023-08-29T23:21:52.999Z,98.38
2023-08-29T23:24:21.246Z,98.68
2023-08-29T23:26:48.978Z,99.03
2023-08-29T23:29:15.550Z,99.12
2023-08-29T23:31:42.082Z,99.65
2023-08-29T23:34:09.161Z,99.74
2023-08-29T23:36:35.726Z,99.96
2023-08-29T23:39:02.745Z,100.00
2023-08-29T23:41:29.456Z,100.00
2023-08-29T23:43:56.160Z,100.00
2023-08-29T23:46:23.026Z,100.00
2023-08-29T23:48:49.540Z,100.00
2023-08-29T23:51:16.537Z,100.00
2023-08-29T23:53:43.064Z,100.00
2023-08-29T23:56:09.556Z,100.00
2023-08-29T23:58:36.843Z,100.00
